createdAt,value
2022-11-13T00:01:25.729Z,101155.66
2022-11-13T00:04:10.875Z,101154.94
2022-11-13T00:06:59.157Z,101153.25
2022-11-13T00:09:46.656Z,101148.66
2022-11-13T00:12:31.990Z,101152.28
2022-11-13T00:15:17.337Z,101139.78
2022-11-13T00:18:03.244Z,101133.72
2022-11-13T00:20:48.547Z,101136.38
2022-11-13T00:23:35.767Z,101137.84
2022-11-13T00:26:26.556Z,101137.09
2022-11-13T00:29:11.850Z,101141.59
2022-11-13T00:31:57.254Z,101139.91
2022-11-13T00:34:47.740Z,101140.03
2022-11-13T00:37:33.272Z,101149.72
2022-11-13T00:40:18.752Z,101151.66
2022-11-13T00:43:03.941Z,101151.66
2022-11-13T00:45:49.234Z,101155.56
2022-11-13T00:48:35.557Z,101155.31
2022-11-13T00:51:20.947Z,101151.28
2022-11-13T00:54:06.333Z,101154.84
2022-11-13T00:56:51.569Z,101148.28
2022-11-13T00:59:36.925Z,101151.31
2022-11-13T01:02:22.318Z,101157.22
2022-11-13T01:05:07.608Z,101148.88
2022-11-13T01:07:53.022Z,101150.47
2022-11-13T01:10:41.457Z,101145.13
2022-11-13T01:13:26.757Z,101141.47
2022-11-13T01:16:13.965Z,101133.97
2022-11-13T01:18:59.173Z,101136.13
2022-11-13T01:21:44.346Z,101132.00
2022-11-13T01:24:29.529Z,101127.41
2022-11-13T01:27:16.009Z,101126.94
2022-11-13T01:30:01.338Z,101132.97
2022-11-13T01:32:46.616Z,101131.19
2022-11-13T01:35:31.830Z,101132.28
2022-11-13T01:38:16.948Z,101130.44
2022-11-13T01:41:02.362Z,101136.16
2022-11-13T01:43:47.754Z,101141.72
2022-11-13T01:46:40.526Z,101141.00
2022-11-13T01:49:30.812Z,101145.00
2022-11-13T01:52:21.060Z,101138.81
2022-11-13T01:55:13.596Z,101132.72
2022-11-13T01:58:00.211Z,101130.06
2022-11-13T02:00:46.328Z,101126.06
2022-11-13T02:03:31.290Z,101130.56
2022-11-13T02:06:16.819Z,101121.72
2022-11-13T02:09:02.155Z,101131.06
2022-11-13T02:11:47.539Z,101129.34
2022-11-13T02:14:33.579Z,101128.25
2022-11-13T02:17:23.304Z,101124.50
2022-11-13T02:20:09.460Z,101118.91
2022-11-13T02:23:09.224Z,101115.28
2022-11-13T02:25:54.828Z,101099.66
2022-11-13T02:28:42.958Z,101104.84
2022-11-13T02:31:28.300Z,101104.50
2022-11-13T02:34:13.576Z,101098.16
2022-11-13T02:36:58.907Z,101101.81
2022-11-13T02:39:44.090Z,101096.47
2022-11-13T02:42:29.356Z,101099.88
2022-11-13T02:45:14.391Z,101095.00
2022-11-13T02:48:00.975Z,101096.69
2022-11-13T02:50:46.440Z,101101.66
2022-11-13T02:53:31.774Z,101101.13
2022-11-13T02:56:16.920Z,101098.34
2022-11-13T02:59:02.114Z,101097.41
2022-11-13T03:01:48.106Z,101109.66
2022-11-13T03:04:50.497Z,101103.91
2022-11-13T03:07:38.719Z,101099.41
2022-11-13T03:10:23.989Z,101096.63
2022-11-13T03:13:09.354Z,101094.81
2022-11-13T03:15:54.487Z,101082.44
2022-11-13T03:18:40.345Z,101089.22
2022-11-13T03:21:25.708Z,101094.56
2022-11-13T03:24:10.960Z,101106.41
2022-11-13T03:26:56.345Z,101098.63
2022-11-13T03:29:41.731Z,101093.50
2022-11-13T03:32:26.897Z,101099.50
2022-11-13T03:35:12.212Z,101096.91
2022-11-13T03:37:57.517Z,101092.13
2022-11-13T03:40:43.339Z,101083.47
2022-11-13T03:43:28.516Z,101085.88
2022-11-13T03:46:13.805Z,101091.09
2022-11-13T03:48:59.007Z,101080.50
2022-11-13T03:51:44.304Z,101081.50
2022-11-13T03:54:29.462Z,101078.97
2022-11-13T03:57:15.294Z,101074.31
2022-11-13T04:00:00.668Z,101076.59
2022-11-13T04:02:45.795Z,101066.50
2022-11-13T04:05:31.338Z,101067.22
2022-11-13T04:08:17.618Z,101064.97
2022-11-13T04:11:09.990Z,101058.38
2022-11-13T04:13:55.070Z,101054.47
2022-11-13T04:16:40.539Z,101051.78
2022-11-13T04:19:25.892Z,101047.88
2022-11-13T04:22:11.139Z,101037.75
2022-11-13T04:24:56.412Z,101048.59
2022-11-13T04:27:41.728Z,101049.03
2022-11-13T04:30:26.823Z,101047.22
2022-11-13T04:33:12.096Z,101044.53
2022-11-13T04:35:57.497Z,101054.38
2022-11-13T04:38:42.639Z,101062.16
2022-11-13T04:41:50.018Z,101060.91
2022-11-13T04:44:37.774Z,101062.56
2022-11-13T04:47:23.592Z,101063.03
2022-11-13T04:50:09.176Z,101069.81
2022-11-13T04:52:54.597Z,101066.72
2022-11-13T04:55:39.753Z,101068.16
2022-11-13T04:58:25.203Z,101075.91
2022-11-13T05:01:10.788Z,101062.94
2022-11-13T05:03:55.966Z,101055.09
2022-11-13T05:06:41.803Z,101065.53
2022-11-13T05:09:26.954Z,101070.72
2022-11-13T05:12:12.291Z,101061.59
2022-11-13T05:14:57.488Z,101068.75
2022-11-13T05:17:42.852Z,101063.91
2022-11-13T05:20:27.995Z,101067.28
2022-11-13T05:23:13.240Z,101059.97
2022-11-13T05:26:10.071Z,101051.06
2022-11-13T05:29:01.946Z,101062.06
2022-11-13T05:31:47.317Z,101057.41
2022-11-13T05:34:32.343Z,101060.50
2022-11-13T05:37:17.555Z,101042.72
2022-11-13T05:40:03.227Z,101045.53
2022-11-13T05:42:48.737Z,101055.38
2022-11-13T05:45:34.032Z,101050.03
2022-11-13T05:48:19.197Z,101047.34
2022-11-13T05:51:10.860Z,101040.31
2022-11-13T05:53:56.711Z,101040.19
2022-11-13T05:56:41.830Z,101037.38
2022-11-13T05:59:27.164Z,101027.53
2022-11-13T06:02:12.664Z,101025.56
2022-11-13T06:04:57.951Z,101023.75
2022-11-13T06:07:43.196Z,101021.06
2022-11-13T06:10:28.544Z,101016.69
2022-11-13T06:13:13.759Z,101012.03
2022-11-13T06:16:08.153Z,101018.25
2022-11-13T06:18:58.408Z,101022.47
2022-11-13T06:21:43.820Z,101013.75
2022-11-13T06:24:29.139Z,101012.59
2022-11-13T06:27:14.352Z,101021.59
2022-11-13T06:29:59.544Z,101018.25
2022-11-13T06:32:44.932Z,101019.09
2022-11-13T06:35:30.531Z,101017.53
2022-11-13T06:38:16.053Z,101006.84
2022-11-13T06:41:02.102Z,101008.81
2022-11-13T06:43:47.792Z,101006.25
2022-11-13T06:46:33.140Z,101007.94
2022-11-13T06:49:18.368Z,101015.84
2022-11-13T06:52:03.793Z,101014.72
2022-11-13T06:54:49.471Z,101015.69
2022-11-13T06:57:34.715Z,101008.38
2022-11-13T07:00:20.077Z,101011.47
2022-11-13T07:03:05.254Z,101006.97
2022-11-13T07:05:51.501Z,101010.75
2022-11-13T07:08:36.790Z,101012.13
2022-11-13T07:11:23.631Z,101026.63
2022-11-13T07:14:11.531Z,101018.75
2022-11-13T07:17:09.066Z,101026.06
2022-11-13T07:19:55.143Z,101022.41
2022-11-13T07:22:40.404Z,101023.25
2022-11-13T07:25:26.710Z,101019.75
2022-11-13T07:28:12.195Z,101026.06
2022-11-13T07:30:58.988Z,101022.41
2022-11-13T07:33:44.753Z,101023.50
2022-11-13T07:36:29.977Z,101029.03
2022-11-13T07:39:15.247Z,101030.81
2022-11-13T07:42:00.508Z,101043.38
2022-11-13T07:44:54.418Z,101039.03
2022-11-13T07:47:41.374Z,101043.38
2022-11-13T07:50:32.288Z,101037.06
2022-11-13T07:53:18.729Z,101043.50
2022-11-13T07:56:04.577Z,101045.22
2022-11-13T07:58:49.959Z,101041.69
2022-11-13T08:01:35.203Z,101041.69
2022-11-13T08:04:20.615Z,101050.25
2022-11-13T08:07:05.943Z,101041.13
2022-11-13T08:09:51.225Z,101042.94
2022-11-13T08:12:36.579Z,101050.69
2022-11-13T08:15:21.981Z,101055.78
2022-11-13T08:18:07.042Z,101047.59
2022-11-13T08:20:52.229Z,101045.78
2022-11-13T08:23:37.443Z,101050.16
2022-11-13T08:26:23.338Z,101038.47
2022-11-13T08:29:08.673Z,101044.66
2022-11-13T08:31:54.122Z,101045.50
2022-11-13T08:34:39.183Z,101045.50
2022-11-13T08:37:24.527Z,101046.50
2022-11-13T08:40:10.216Z,101052.28
2022-11-13T08:43:00.201Z,101055.97
2022-11-13T08:45:47.281Z,101050.59
2022-11-13T08:48:32.506Z,101053.41
2022-11-13T08:51:18.264Z,101056.09
2022-11-13T08:54:03.619Z,101064.38
2022-11-13T08:56:54.511Z,101053.41
2022-11-13T08:59:41.102Z,101055.09
2022-11-13T09:02:27.046Z,101054.97
2022-11-13T09:05:12.616Z,101063.28
2022-11-13T09:07:59.261Z,101064.94
2022-11-13T09:10:44.718Z,101065.53
2022-11-13T09:13:30.506Z,101062.00
2022-11-13T09:16:15.939Z,101058.63
2022-11-13T09:19:01.399Z,101058.88
2022-11-13T09:21:47.195Z,101054.25
2022-11-13T09:24:33.327Z,101052.56
2022-11-13T09:27:18.709Z,101048.34
2022-11-13T09:30:04.137Z,101052.00
2022-11-13T09:32:53.557Z,101057.34
2022-11-13T09:35:38.519Z,101062.69
2022-11-13T09:38:24.135Z,101057.13
2022-11-13T09:41:14.166Z,101070.38
2022-11-13T09:44:04.005Z,101069.38
2022-11-13T09:46:54.147Z,101062.34
2022-11-13T09:50:05.113Z,101062.19
2022-11-13T09:52:52.090Z,101059.50
2022-11-13T09:55:45.400Z,101065.31
2022-11-13T09:58:48.436Z,101062.19
2022-11-13T10:01:47.805Z,101055.88
2022-11-13T10:05:00.790Z,101047.84
2022-11-13T10:08:04.046Z,101056.56
2022-11-13T10:10:56.294Z,101049.50
2022-11-13T10:13:49.475Z,101047.00
2022-11-13T10:16:43.496Z,101051.94
2022-11-13T10:19:55.601Z,101038.66
2022-11-13T10:22:51.341Z,101037.38
2022-11-13T10:25:38.725Z,101032.75
2022-11-13T10:28:49.400Z,101023.88
2022-11-13T10:31:45.187Z,101031.47
2022-11-13T10:34:33.233Z,101027.66
2022-11-13T10:37:48.494Z,101024.88
2022-11-13T10:40:39.652Z,101025.56
2022-11-13T10:43:26.449Z,101023.59
2022-11-13T10:46:31.875Z,101026.84
2022-11-13T10:49:18.940Z,101023.88
2022-11-13T10:52:09.983Z,101020.34
2022-11-13T10:55:15.558Z,101015.84
2022-11-13T10:58:04.219Z,101004.50
2022-11-13T11:00:50.281Z,100997.22
2022-11-13T11:03:35.580Z,101003.59
2022-11-13T11:06:20.818Z,100994.53
2022-11-13T11:09:23.231Z,101002.19
2022-11-13T11:12:18.918Z,101004.44
2022-11-13T11:15:19.123Z,100996.81
2022-11-13T11:18:15.395Z,100997.97
2022-11-13T11:21:07.751Z,100990.91
2022-11-13T11:24:18.077Z,100989.91
2022-11-13T11:27:17.504Z,100985.44
2022-11-13T11:30:12.650Z,100990.91
2022-11-13T11:33:19.996Z,100984.72
2022-11-13T11:36:15.780Z,100983.00
2022-11-13T11:39:19.700Z,100968.50
2022-11-13T11:42:05.222Z,100963.28
2022-11-13T11:45:14.464Z,100964.13
2022-11-13T11:48:02.029Z,100968.50
2022-11-13T11:51:24.698Z,100964.41
2022-11-13T11:54:13.147Z,100968.63
2022-11-13T11:57:11.071Z,100967.09
2022-11-13T11:59:56.263Z,100966.09
2022-11-13T12:02:56.637Z,100963.84
2022-11-13T12:06:07.010Z,100964.97
2022-11-13T12:09:13.666Z,100960.88
2022-11-13T12:12:21.897Z,100959.03
2022-11-13T12:15:28.772Z,100956.22
2022-11-13T12:18:36.221Z,100954.78
2022-11-13T12:21:22.825Z,100954.78
2022-11-13T12:24:22.941Z,100945.91
2022-11-13T12:27:29.804Z,100938.44
2022-11-13T12:30:19.811Z,100944.63
2022-11-13T12:33:23.364Z,100945.34
2022-11-13T12:36:11.377Z,100942.09
2022-11-13T12:39:34.809Z,100942.66
2022-11-13T12:42:45.030Z,100943.63
2022-11-13T12:45:39.115Z,100945.78
2022-11-13T12:48:33.896Z,100936.59
2022-11-13T12:51:18.976Z,100938.00
2022-11-13T12:54:04.253Z,100933.66
2022-11-13T12:56:49.460Z,100927.84
2022-11-13T12:59:39.277Z,100920.53
2022-11-13T13:02:27.477Z,100920.81
2022-11-13T13:05:30.914Z,100922.94
2022-11-13T13:08:21.940Z,100922.78
2022-11-13T13:11:16.147Z,100920.56
2022-11-13T13:14:04.512Z,100921.53
2022-11-13T13:16:49.540Z,100926.06
2022-11-13T13:19:35.266Z,100920.81
2022-11-13T13:25:36.145Z,100915.47
2022-11-13T13:28:24.454Z,100916.47
2022-11-13T13:31:16.577Z,100899.84
2022-11-13T13:34:24.877Z,100887.28
2022-11-13T13:37:26.559Z,100887.13
2022-11-13T13:40:20.447Z,100895.63
2022-11-13T13:43:20.521Z,100899.25
2022-11-13T13:46:17.048Z,100903.25
2022-11-13T13:49:09.450Z,100898.72
2022-11-13T13:51:57.754Z,100891.84
2022-11-13T13:54:45.217Z,100890.97
2022-11-13T13:57:30.709Z,100883.78
2022-11-13T14:00:19.078Z,100888.00
2022-11-13T14:03:04.927Z,100888.84
2022-11-13T14:05:50.178Z,100881.81
2022-11-13T14:08:35.648Z,100886.47
2022-11-13T14:11:27.256Z,100884.19
2022-11-13T14:14:21.514Z,100884.50
2022-11-13T14:17:10.147Z,100864.63
2022-11-13T14:20:00.905Z,100868.84
2022-11-13T14:22:53.269Z,100851.78
2022-11-13T14:25:42.151Z,100844.03
2022-11-13T14:28:31.118Z,100846.56
2022-11-13T14:31:17.070Z,100845.72
2022-11-13T14:34:09.599Z,100860.09
2022-11-13T14:36:54.908Z,100848.56
2022-11-13T14:39:40.222Z,100849.38
2022-11-13T14:42:38.584Z,100842.22
2022-11-13T14:45:33.959Z,100841.22
2022-11-13T14:48:20.155Z,100853.06
2022-11-13T14:51:19.343Z,100842.50
2022-11-13T14:54:09.052Z,100843.63
2022-11-13T14:56:54.529Z,100855.34
2022-11-13T14:59:43.750Z,100844.63
2022-11-13T15:02:28.757Z,100842.78
2022-11-13T15:05:13.998Z,100849.13
2022-11-13T15:07:59.362Z,100841.78
2022-11-13T15:10:44.632Z,100845.88
2022-11-13T15:13:30.223Z,100855.03
2022-11-13T15:16:26.469Z,100856.72
2022-11-13T15:19:26.724Z,100857.41
2022-11-13T15:22:26.632Z,100852.66
2022-11-13T15:25:15.757Z,100857.03
2022-11-13T15:28:01.939Z,100850.25
2022-11-13T15:30:46.888Z,100843.75
2022-11-13T15:33:32.150Z,100857.31
2022-11-13T15:36:17.454Z,100857.31
2022-11-13T15:39:06.638Z,100843.22
2022-11-13T15:41:52.848Z,100840.81
2022-11-13T15:44:37.985Z,100843.09
2022-11-13T15:47:29.198Z,100844.34
2022-11-13T15:50:15.773Z,100846.88
2022-11-13T15:53:05.459Z,100856.75
2022-11-13T15:55:50.753Z,100859.69
2022-11-13T15:58:36.062Z,100856.88
2022-11-13T16:01:21.862Z,100852.53
2022-11-13T16:04:07.530Z,100853.81
2022-11-13T16:06:53.941Z,100844.78
2022-11-13T16:09:39.183Z,100846.47
2022-11-13T16:12:24.545Z,100841.25
2022-11-13T16:15:14.216Z,100840.41
2022-11-13T16:18:01.126Z,100841.25
2022-11-13T16:20:47.127Z,100846.75
2022-11-13T16:23:32.314Z,100844.06
2022-11-13T16:26:23.573Z,100851.97
2022-11-13T16:29:19.319Z,100846.34
2022-11-13T16:32:04.819Z,100845.22
2022-11-13T16:34:50.149Z,100841.69
2022-11-13T16:37:35.488Z,100840.69
2022-11-13T16:40:23.624Z,100841.69
2022-11-13T16:43:10.285Z,100836.47
2022-11-13T16:45:58.976Z,100829.28
2022-11-13T16:48:44.621Z,100824.47
2022-11-13T16:51:29.835Z,100817.59
2022-11-13T16:54:15.194Z,100809.44
2022-11-13T16:57:00.355Z,100803.06
2022-11-13T16:59:45.692Z,100806.75
2022-11-13T17:02:30.901Z,100803.22
2022-11-13T17:05:17.543Z,100812.66
2022-11-13T17:08:02.939Z,100809.25
2022-11-13T17:10:57.545Z,100819.97
2022-11-13T17:13:42.867Z,100812.94
2022-11-13T17:16:30.251Z,100811.25
2022-11-13T17:19:15.539Z,100798.72
2022-11-13T17:22:01.155Z,100809.97
2022-11-13T17:24:46.222Z,100785.16
2022-11-13T17:27:31.539Z,100778.69
2022-11-13T17:30:17.272Z,100788.00
2022-11-13T17:33:02.394Z,100780.81
2022-11-13T17:35:53.760Z,100781.25
2022-11-13T17:38:39.239Z,100781.09
2022-11-13T17:41:24.247Z,100777.44
2022-11-13T17:44:09.568Z,100785.88
2022-11-13T17:46:54.965Z,100775.59
2022-11-13T17:49:40.465Z,100778.81
2022-11-13T17:52:25.734Z,100779.41
2022-11-13T17:55:16.402Z,100783.50
2022-11-13T17:58:02.254Z,100778.41
2022-11-13T18:00:48.058Z,100775.59
2022-11-13T18:03:34.246Z,100774.91
2022-11-13T18:06:20.423Z,100771.38
2022-11-13T18:09:06.348Z,100768.94
2022-11-13T18:11:51.511Z,100768.00
2022-11-13T18:14:36.693Z,100765.34
2022-11-13T18:17:23.016Z,100765.44
2022-11-13T18:20:08.749Z,100764.59
2022-11-13T18:22:54.252Z,100772.50
2022-11-13T18:25:39.998Z,100769.25
2022-11-13T18:28:25.254Z,100770.81
2022-11-13T18:31:14.859Z,100772.50
2022-11-13T18:34:04.289Z,100779.56
2022-11-13T18:36:50.062Z,100773.78
2022-11-13T18:39:35.055Z,100776.88
2022-11-13T18:42:20.292Z,100781.66
2022-11-13T18:45:06.444Z,100781.81
2022-11-13T18:47:51.741Z,100779.56
2022-11-13T18:50:36.978Z,100776.19
2022-11-13T18:53:22.188Z,100779.25
2022-11-13T18:56:11.888Z,100764.91
2022-11-13T18:58:59.199Z,100770.00
2022-11-13T19:01:45.461Z,100752.94
2022-11-13T19:04:31.049Z,100758.72
2022-11-13T19:07:16.482Z,100767.00
2022-11-13T19:10:02.357Z,100768.28
2022-11-13T19:12:47.553Z,100769.97
2022-11-13T19:15:37.166Z,100763.78
2022-11-13T19:18:22.756Z,100777.31
2022-11-13T19:21:10.738Z,100767.44
2022-11-13T19:23:56.829Z,100761.53
2022-11-13T19:26:43.428Z,100768.28
2022-11-13T19:29:28.454Z,100762.94
2022-11-13T19:32:13.848Z,100765.34
2022-11-13T19:34:58.949Z,100770.69
2022-11-13T19:37:44.264Z,100758.28
2022-11-13T19:40:29.638Z,100765.47
2022-11-13T19:43:15.075Z,100767.88
2022-11-13T19:46:04.938Z,100768.28
2022-11-13T19:48:50.407Z,100758.16
2022-11-13T19:51:36.488Z,100763.50
2022-11-13T19:54:33.690Z,100757.19
2022-11-13T19:57:18.863Z,100760.81
2022-11-13T20:00:05.442Z,100758.59
2022-11-13T20:02:50.578Z,100758.72
2022-11-13T20:05:40.875Z,100743.81
2022-11-13T20:08:28.157Z,100733.09
2022-11-13T20:11:15.194Z,100740.13
2022-11-13T20:14:00.586Z,100741.53
2022-11-13T20:16:45.456Z,100728.16
2022-11-13T20:19:30.819Z,100727.19
2022-11-13T20:22:16.306Z,100726.91
2022-11-13T20:25:02.530Z,100723.81
2022-11-13T20:27:47.870Z,100730.28
2022-11-13T20:30:33.054Z,100721.84
2022-11-13T20:33:22.351Z,100723.53
2022-11-13T20:36:08.502Z,100718.72
2022-11-13T20:38:55.993Z,100719.16
2022-11-13T20:41:41.193Z,100719.84
2022-11-13T20:44:26.679Z,100719.56
2022-11-13T20:47:11.700Z,100712.22
2022-11-13T20:49:57.075Z,100717.72
2022-11-13T20:52:42.292Z,100721.09
2022-11-13T20:55:27.548Z,100715.91
2022-11-13T20:58:12.900Z,100711.94
2022-11-13T21:01:09.895Z,100714.75
2022-11-13T21:04:02.293Z,100711.25
2022-11-13T21:06:47.598Z,100702.53
2022-11-13T21:09:32.831Z,100700.94
2022-11-13T21:12:18.916Z,100691.94
2022-11-13T21:15:04.686Z,100691.81
2022-11-13T21:17:49.941Z,100687.69
2022-11-13T21:20:36.470Z,100683.75
2022-11-13T21:23:21.624Z,100683.75
2022-11-13T21:26:08.499Z,100689.94
2022-11-13T21:28:57.704Z,100670.91
2022-11-13T21:31:42.730Z,100671.19
2022-11-13T21:34:28.143Z,100667.97
2022-11-13T21:37:14.633Z,100655.56
2022-11-13T21:39:59.794Z,100664.47
2022-11-13T21:42:45.406Z,100651.38
2022-11-13T21:45:33.234Z,100647.53
2022-11-13T21:48:18.284Z,100648.09
2022-11-13T21:51:03.789Z,100656.69
2022-11-13T21:53:49.017Z,100651.16
2022-11-13T21:56:36.533Z,100650.47
2022-11-13T21:59:21.703Z,100643.75
2022-11-13T22:02:10.962Z,100633.63
2022-11-13T22:04:56.589Z,100634.34
2022-11-13T22:07:41.865Z,100621.13
2022-11-13T22:10:27.143Z,100625.19
2022-11-13T22:13:12.496Z,100612.81
2022-11-13T22:15:58.192Z,100611.66
2022-11-13T22:18:43.920Z,100615.88
2022-11-13T22:21:31.930Z,100603.50
2022-11-13T22:24:17.144Z,100608.53
2022-11-13T22:27:02.459Z,100609.25
2022-11-13T22:29:47.713Z,100613.31
2022-11-13T22:32:32.966Z,100608.50
2022-11-13T22:35:18.225Z,100613.44
2022-11-13T22:38:03.459Z,100611.75
2022-11-13T22:40:48.997Z,100594.72
2022-11-13T22:43:37.797Z,100592.59
2022-11-13T22:46:25.636Z,100590.75
2022-11-13T22:49:11.956Z,100588.06
2022-11-13T22:51:56.927Z,100595.09
2022-11-13T22:54:42.213Z,100582.25
2022-11-13T22:57:27.686Z,100590.16
2022-11-13T23:00:16.949Z,100587.16
2022-11-13T23:03:02.680Z,100586.88
2022-11-13T23:06:01.003Z,100573.50
2022-11-13T23:08:47.171Z,100577.16
2022-11-13T23:11:39.949Z,100573.50
2022-11-13T23:14:25.760Z,100574.31
2022-11-13T23:17:11.204Z,100570.66
2022-11-13T23:19:56.763Z,100572.63
2022-11-13T23:22:44.755Z,100564.59
2022-11-13T23:25:32.731Z,100564.44
2022-11-13T23:28:17.698Z,100560.25
2022-11-13T23:31:04.149Z,100560.09
2022-11-13T23:33:49.719Z,100549.69
2022-11-13T23:36:36.151Z,100545.47
2022-11-13T23:39:21.519Z,100540.97
2022-11-13T23:42:08.306Z,100544.19
2022-11-13T23:44:54.298Z,100539.66
2022-11-13T23:47:40.495Z,100542.34
2022-11-13T23:50:26.983Z,100544.03
2022-11-13T23:53:15.999Z,100537.13
2022-11-13T23:56:06.329Z,100539.66
2022-11-13T23:58:53.230Z,100539.53
